Time;durP1;ratioP1;P1;durP2;ratioP2;P2;SDS_P1;SDS_P2;PMS_P1;PMS_P2;Temp;Humidity;BMP_temperature;BMP_pressure;BME280_temperature;BME280_humidity;BME280_pressure;Samples;Min_cycle;Max_cycle;Signal;HPM_P1;HPM_P2
2022/04/04 00:00:08;;;;;;;1.63;1.52;;;8.60;73.60;;;;;;5052113;28;20653;-48
2022/04/04 00:02:39;;;;;;;1.88;1.77;;;8.50;73.60;;;;;;5043640;28;20218;-49
2022/04/04 00:05:08;;;;;;;1.50;1.40;;;8.50;73.50;;;;;;5051895;28;20622;-46
2022/04/04 00:07:36;;;;;;;1.98;1.38;;;8.60;73.60;;;;;;5047831;28;20222;-46
2022/04/04 00:10:07;;;;;;;1.80;1.67;;;8.50;73.60;;;;;;5041194;28;20193;-47
2022/04/04 00:12:35;;;;;;;2.17;1.75;;;8.60;73.70;;;;;;5050774;28;20291;-49
2022/04/04 00:15:03;;;;;;;3.00;1.67;;;8.50;73.60;;;;;;5051554;28;20299;-47
2022/04/04 00:17:31;;;;;;;2.95;1.90;;;8.50;73.50;;;;;;5043698;28;20655;-49
2022/04/04 00:20:00;;;;;;;1.80;1.67;;;8.50;73.60;;;;;;5052308;28;20190;-48
2022/04/04 00:22:28;;;;;;;2.60;1.90;;;8.60;73.60;;;;;;5048799;28;20214;-47
2022/04/04 00:24:56;;;;;;;1.98;1.88;;;8.50;73.60;;;;;;5039115;28;20225;-47
2022/04/04 00:27:26;;;;;;;1.40;1.30;;;8.50;73.50;;;;;;5040290;28;20281;-48
2022/04/04 00:29:54;;;;;;;1.83;1.70;;;8.50;73.60;;;;;;5047309;28;20243;-48
2022/04/04 00:32:22;;;;;;;1.50;1.40;;;8.60;73.80;;;;;;5040937;28;20223;-47
2022/04/04 00:34:50;;;;;;;2.13;1.80;;;8.50;73.60;;;;;;5051441;28;20579;-48
2022/04/04 00:37:19;;;;;;;1.85;1.70;;;8.60;73.70;;;;;;5049666;28;20287;-46
2022/04/04 00:39:47;;;;;;;1.60;1.50;;;8.50;73.60;;;;;;5046465;28;20510;-45
2022/04/04 00:42:16;;;;;;;1.60;1.50;;;8.60;73.60;;;;;;5049722;28;20562;-45
2022/04/04 00:44:46;;;;;;;2.15;1.63;;;8.50;73.60;;;;;;5050804;28;20199;-47
2022/04/04 00:47:14;;;;;;;1.63;1.52;;;8.50;73.60;;;;;;5044020;28;20756;-48
2022/04/04 00:49:42;;;;;;;3.33;1.98;;;8.50;73.60;;;;;;5051194;28;20576;-48
2022/04/04 00:52:10;;;;;;;1.73;1.42;;;8.50;73.40;;;;;;5050324;28;20247;-49
2022/04/04 00:54:38;;;;;;;4.00;1.83;;;8.50;73.50;;;;;;5035333;28;20299;-48
2022/04/04 00:57:07;;;;;;;1.95;1.85;;;8.50;73.60;;;;;;5050506;28;20245;-47
2022/04/04 00:59:36;;;;;;;1.52;1.30;;;8.50;73.50;;;;;;5051546;28;20180;-47
2022/04/04 01:02:06;;;;;;;2.33;2.13;;;8.50;73.50;;;;;;5047934;28;20221;-50
2022/04/04 01:04:36;;;;;;;2.08;1.73;;;8.50;73.40;;;;;;5050628;28;20229;-48
2022/04/04 01:07:04;;;;;;;1.92;1.77;;;8.50;74.70;;;;;;5050113;28;20785;-47
2022/04/04 01:09:33;;;;;;;2.30;2.17;;;8.50;73.40;;;;;;5040859;28;20288;-50
2022/04/04 01:12:07;;;;;;;2.40;1.52;;;8.50;73.60;;;;;;5050590;28;20303;-47
2022/04/04 01:14:36;;;;;;;2.53;2.20;;;8.50;73.60;;;;;;5050503;28;20251;-48
2022/04/04 01:17:07;;;;;;;2.67;1.70;;;8.50;73.50;;;;;;5047476;28;20334;-46
2022/04/04 01:19:35;;;;;;;2.08;1.88;;;8.50;73.40;;;;;;5043289;28;20210;-48
2022/04/04 01:22:07;;;;;;;2.33;2.13;;;8.50;73.40;;;;;;5050303;28;20311;-45
2022/04/04 01:24:38;;;;;;;2.75;2.35;;;8.50;73.60;;;;;;5035599;28;20222;-48
2022/04/04 01:27:07;;;;;;;2.75;1.85;;;8.50;73.30;;;;;;5049614;28;20213;-49
2022/04/04 01:29:36;;;;;;;1.73;1.63;;;8.50;73.60;;;;;;5044732;28;20230;-48
2022/04/04 01:32:06;;;;;;;1.67;1.58;;;8.50;74.80;;;;;;5045025;28;20308;-47
2022/04/04 01:34:34;;;;;;;2.90;1.88;;;8.50;73.40;;;;;;5049361;28;20259;-47
2022/04/04 01:37:03;;;;;;;1.98;1.80;;;8.50;73.60;;;;;;5049924;28;20218;-48
2022/04/04 01:39:32;;;;;;;2.03;1.80;;;8.50;73.40;;;;;;5043550;28;20227;-48
2022/04/04 01:42:01;;;;;;;2.75;1.70;;;8.50;73.50;;;;;;5050254;28;20316;-46
2022/04/04 01:44:29;;;;;;;1.40;1.30;;;8.50;73.60;;;;;;5049720;28;20209;-47
2022/04/04 01:46:58;;;;;;;1.80;1.70;;;8.50;73.50;;;;;;5046453;28;20312;-45
2022/04/04 01:49:26;;;;;;;2.17;1.50;;;8.50;73.40;;;;;;5049850;28;20731;-46
2022/04/04 01:51:54;;;;;;;1.88;1.77;;;8.50;73.60;;;;;;5049859;28;20618;-46
2022/04/04 01:54:22;;;;;;;1.92;1.55;;;8.50;73.50;;;;;;5046095;28;20703;-46
2022/04/04 01:56:50;;;;;;;1.75;1.65;;;8.50;73.60;;;;;;5049753;28;20223;-47
2022/04/04 01:59:20;;;;;;;2.20;1.60;;;8.50;73.40;;;;;;5050392;28;20192;-47
2022/04/04 02:01:48;;;;;;;2.30;2.10;;;8.50;73.50;;;;;;5048076;28;20573;-46
2022/04/04 02:04:16;;;;;;;2.50;2.30;;;8.40;73.30;;;;;;5049698;28;20221;-46
2022/04/04 02:06:47;;;;;;;2.08;1.88;;;8.50;73.40;;;;;;5049615;28;20216;-48
2022/04/04 02:09:16;;;;;;;2.10;1.65;;;8.50;73.40;;;;;;5034837;28;20615;-48
2022/04/04 02:11:45;;;;;;;1.60;1.50;;;8.50;73.30;;;;;;5049760;28;20223;-47
2022/04/04 02:14:13;;;;;;;1.90;1.80;;;8.40;73.40;;;;;;5049566;28;20291;-46
2022/04/04 02:16:42;;;;;;;3.45;1.90;;;8.50;73.50;;;;;;5041637;28;20300;-47
2022/04/04 02:19:10;;;;;;;2.30;2.15;;;8.40;73.30;;;;;;5050254;28;20227;-47
2022/04/04 02:21:41;;;;;;;2.45;2.25;;;8.40;73.20;;;;;;5049386;28;20221;-49
2022/04/04 02:24:09;;;;;;;2.40;2.20;;;8.50;73.50;;;;;;5038620;28;20761;-47
2022/04/04 02:26:38;;;;;;;2.55;2.35;;;8.50;73.50;;;;;;5049491;28;20712;-49
2022/04/04 02:29:06;;;;;;;2.10;1.90;;;8.40;73.10;;;;;;5036818;28;20642;-50
2022/04/04 02:31:34;;;;;;;2.38;1.70;;;8.50;73.30;;;;;;5049864;28;20246;-48
2022/04/04 02:34:04;;;;;;;1.55;1.45;;;8.40;73.30;;;;;;5047730;28;20213;-49
2022/04/04 02:36:32;;;;;;;2.08;1.33;;;8.40;73.30;;;;;;5049964;28;20317;-48
2022/04/04 02:39:01;;;;;;;3.38;2.13;;;8.40;73.30;;;;;;5043039;28;20240;-48
2022/04/04 02:41:29;;;;;;;2.30;2.10;;;8.40;73.10;;;;;;5049483;28;20247;-46
2022/04/04 02:43:58;;;;;;;1.92;1.83;;;8.40;73.20;;;;;;5050249;28;20568;-48
2022/04/04 02:46:27;;;;;;;2.50;2.00;;;8.40;73.20;;;;;;5047462;28;20218;-48
2022/04/04 02:48:56;;;;;;;1.95;1.85;;;8.40;73.30;;;;;;5049680;28;20645;-46
2022/04/04 02:51:25;;;;;;;2.90;2.70;;;8.40;73.30;;;;;;5048870;28;20650;-46
2022/04/04 02:53:53;;;;;;;2.45;1.98;;;8.40;74.40;;;;;;5042953;28;20239;-46
2022/04/04 02:56:29;;;;;;;2.38;2.17;;;8.40;73.00;;;;;;5048807;28;20747;-47
2022/04/04 02:59:02;;;;;;;7.40;2.47;;;8.40;73.10;;;;;;5049791;28;20222;-47
2022/04/04 03:01:30;;;;;;;2.55;2.30;;;8.40;73.00;;;;;;5049025;28;20301;-48
2022/04/04 03:03:59;;;;;;;2.10;2.00;;;8.40;73.10;;;;;;5045133;28;20213;-50
2022/04/04 03:06:28;;;;;;;2.60;2.20;;;8.40;72.80;;;;;;5052630;28;20227;-47
2022/04/04 03:08:56;;;;;;;2.50;2.30;;;8.40;72.80;;;;;;5038626;28;20280;-48
2022/04/04 03:11:24;;;;;;;1.90;1.60;;;8.40;72.80;;;;;;5052313;28;20213;-47
2022/04/04 03:13:52;;;;;;;3.08;2.60;;;8.30;72.70;;;;;;5053235;28;20214;-48
2022/04/04 03:16:20;;;;;;;3.08;2.50;;;8.40;72.70;;;;;;5051820;28;20236;-46
2022/04/04 03:18:48;;;;;;;2.28;2.08;;;8.40;72.70;;;;;;5044738;28;20206;-48
2022/04/04 03:21:17;;;;;;;2.05;1.83;;;8.40;72.60;;;;;;5051590;28;20309;-46
2022/04/04 03:23:47;;;;;;;2.83;2.60;;;8.40;72.50;;;;;;5046377;28;20208;-50
2022/04/04 03:26:15;;;;;;;2.65;2.45;;;8.40;72.90;;;;;;5052039;28;20742;-47
2022/04/04 03:28:43;;;;;;;3.05;2.75;;;8.40;72.70;;;;;;5051666;28;20185;-47
2022/04/04 03:31:11;;;;;;;3.13;2.83;;;8.40;72.90;;;;;;5051590;28;20626;-48
2022/04/04 03:33:40;;;;;;;2.65;2.30;;;8.40;72.60;;;;;;5043328;28;20207;-49
2022/04/04 03:36:08;;;;;;;3.10;2.63;;;8.30;72.50;;;;;;5052507;28;20281;-49
2022/04/04 03:38:36;;;;;;;3.53;3.10;;;8.30;72.50;;;;;;5052286;28;20215;-48
2022/04/04 03:41:06;;;;;;;3.00;2.55;;;8.30;72.60;;;;;;5052318;28;20180;-50
2022/04/04 03:43:34;;;;;;;4.32;2.33;;;8.30;72.70;;;;;;5052481;28;20210;-46
2022/04/04 03:46:02;;;;;;;2.67;2.47;;;8.30;72.80;;;;;;5050474;28;20193;-49
2022/04/04 03:48:31;;;;;;;3.55;2.70;;;8.30;72.70;;;;;;5046021;28;20272;-48
2022/04/04 03:50:59;;;;;;;3.88;3.35;;;8.30;73.60;;;;;;5053474;28;20284;-48
2022/04/04 03:53:27;;;;;;;3.60;2.70;;;8.30;72.50;;;;;;5046494;28;20308;-46
2022/04/04 03:55:55;;;;;;;4.18;2.60;;;8.30;72.40;;;;;;5052374;28;20217;-47
2022/04/04 03:58:27;;;;;;;3.47;2.88;;;8.30;72.30;;;;;;5052199;28;20223;-46
2022/04/04 04:00:55;;;;;;;2.72;2.53;;;8.30;72.40;;;;;;5052451;28;20740;-47
2022/04/04 04:03:24;;;;;;;3.58;2.92;;;8.30;72.50;;;;;;5042490;28;20663;-50
2022/04/04 04:06:11;;;;;;;3.58;3.28;;;8.30;72.40;;;;;;5046847;28;20285;-49
2022/04/04 04:08:41;;;;;;;2.92;2.60;;;8.30;72.60;;;;;;5044735;28;20217;-47
2022/04/04 04:11:10;;;;;;;2.70;2.35;;;8.30;72.30;;;;;;5051518;28;20203;-48
2022/04/04 04:13:41;;;;;;;3.50;3.05;;;8.30;72.30;;;;;;5052228;28;20208;-49
2022/04/04 04:16:09;;;;;;;4.50;2.75;;;8.30;72.10;;;;;;5050244;28;20288;-47
2022/04/04 04:18:38;;;;;;;2.58;2.33;;;8.30;72.10;;;;;;5045371;28;20209;-45
2022/04/04 04:21:08;;;;;;;2.28;2.08;;;8.30;72.50;;;;;;5051272;28;20205;-47
2022/04/04 04:23:43;;;;;;;3.75;2.70;;;8.30;72.10;;;;;;5044903;28;20209;-47
2022/04/04 04:26:13;;;;;;;3.78;2.53;;;8.30;72.20;;;;;;5050820;28;20648;-47
2022/04/04 04:28:45;;;;;;;2.38;1.83;;;8.30;72.40;;;;;;5051606;28;20698;-47
2022/04/04 04:31:14;;;;;;;2.97;2.40;;;8.30;72.30;;;;;;5040328;28;20216;-47
2022/04/04 04:33:42;;;;;;;4.22;2.70;;;8.30;72.30;;;;;;5037706;28;20319;-47
2022/04/04 04:36:10;;;;;;;2.33;2.08;;;8.30;72.00;;;;;;5040304;28;20184;-46
2022/04/04 04:38:38;;;;;;;2.85;2.58;;;8.30;72.40;;;;;;5039651;28;20287;-47
2022/04/04 04:41:06;;;;;;;3.05;2.70;;;8.30;72.50;;;;;;5047559;28;20604;-47
2022/04/04 04:43:34;;;;;;;2.80;1.80;;;8.30;72.10;;;;;;5051080;28;20239;-47
2022/04/04 04:46:04;;;;;;;2.70;2.50;;;8.30;72.10;;;;;;5039207;28;20576;-47
2022/04/04 04:48:32;;;;;;;2.63;2.42;;;8.20;72.00;;;;;;5051561;28;20187;-45
2022/04/04 04:51:01;;;;;;;4.18;3.30;;;8.20;72.10;;;;;;5050872;28;20280;-46
2022/04/04 04:53:29;;;;;;;2.60;2.40;;;8.20;71.70;;;;;;5043701;28;20216;-48
2022/04/04 04:55:57;;;;;;;3.53;3.22;;;8.30;72.10;;;;;;5050894;28;20213;-45
2022/04/04 04:58:25;;;;;;;4.18;2.47;;;8.30;72.30;;;;;;5049690;28;20297;-47
2022/04/04 05:00:53;;;;;;;2.78;2.42;;;8.20;71.50;;;;;;5051022;28;20185;-48
2022/04/04 05:03:26;;;;;;;2.72;2.35;;;8.20;72.00;;;;;;5047179;28;20670;-46
2022/04/04 05:05:55;;;;;;;2.88;2.58;;;8.20;72.10;;;;;;5050783;28;20245;-49
2022/04/04 05:08:23;;;;;;;2.95;2.65;;;8.20;72.20;;;;;;5043501;28;20592;-47
2022/04/04 05:10:52;;;;;;;3.75;2.92;;;8.20;71.80;;;;;;5050777;28;20252;-47
2022/04/04 05:13:22;;;;;;;3.45;2.88;;;8.20;72.00;;;;;;5050423;28;20688;-47
2022/04/04 05:15:51;;;;;;;2.58;2.38;;;8.20;71.50;;;;;;5050496;28;20251;-50
2022/04/04 05:18:19;;;;;;;4.38;2.47;;;8.20;71.40;;;;;;5041097;28;20226;-48
2022/04/04 05:20:49;;;;;;;2.05;1.85;;;8.20;71.50;;;;;;5050519;28;20689;-48
2022/04/04 05:23:17;;;;;;;3.10;2.55;;;8.20;71.90;;;;;;5047549;28;20216;-47
2022/04/04 05:25:46;;;;;;;3.58;2.25;;;8.20;71.90;;;;;;5050533;28;20188;-49
2022/04/04 05:28:14;;;;;;;2.50;2.10;;;8.20;71.90;;;;;;5049376;28;20217;-47
2022/04/04 05:30:45;;;;;;;3.03;2.40;;;8.20;71.50;;;;;;5047383;28;20189;-50
2022/04/04 05:33:14;;;;;;;2.03;1.63;;;8.20;71.60;;;;;;5066704;28;20215;-48
2022/04/04 05:35:43;;;;;;;2.78;2.35;;;8.20;71.70;;;;;;5070429;28;20200;-45
2022/04/04 05:38:14;;;;;;;2.78;2.55;;;8.20;71.50;;;;;;5066777;28;20704;-45
2022/04/04 05:40:43;;;;;;;2.30;2.10;;;8.10;71.50;;;;;;5071250;28;20222;-46
2022/04/04 05:43:12;;;;;;;2.63;2.42;;;8.20;71.60;;;;;;5069113;28;20704;-47
2022/04/04 05:45:41;;;;;;;2.92;2.70;;;8.20;71.40;;;;;;5069133;28;20276;-49
2022/04/04 05:48:10;;;;;;;2.00;1.90;;;8.20;71.50;;;;;;5070689;28;20228;-46
2022/04/04 05:50:38;;;;;;;2.55;2.13;;;8.20;71.60;;;;;;5070561;28;20593;-46
2022/04/04 05:53:07;;;;;;;2.10;1.90;;;8.20;71.80;;;;;;5062493;28;20213;-49
2022/04/04 05:55:41;;;;;;;3.97;2.47;;;8.20;71.60;;;;;;5062717;28;20192;-47
2022/04/04 05:58:09;;;;;;;3.90;2.65;;;8.20;71.30;;;;;;5069090;28;20236;-48
2022/04/04 06:00:38;;;;;;;3.38;2.20;;;8.20;71.30;;;;;;5067787;28;20290;-47
2022/04/04 06:03:07;;;;;;;2.85;2.40;;;8.10;71.30;;;;;;5069424;28;20222;-46
2022/04/04 06:05:36;;;;;;;3.30;3.00;;;8.10;71.60;;;;;;5069929;28;20183;-48
2022/04/04 06:08:08;;;;;;;2.30;2.10;;;8.10;71.10;;;;;;5062855;28;20217;-47
2022/04/04 06:10:38;;;;;;;2.22;1.75;;;8.10;71.40;;;;;;5070482;28;20267;-48
2022/04/04 06:13:07;;;;;;;2.58;2.38;;;8.10;71.50;;;;;;5069152;28;20277;-49
2022/04/04 06:15:35;;;;;;;2.35;2.15;;;8.10;71.10;;;;;;5061361;28;20184;-49
2022/04/04 06:18:04;;;;;;;2.95;1.80;;;8.10;71.00;;;;;;5066039;28;20233;-46
2022/04/04 06:20:32;;;;;;;3.30;1.80;;;8.10;71.30;;;;;;5069874;28;20208;-46
2022/04/04 06:23:00;;;;;;;2.80;2.25;;;8.10;71.40;;;;;;5067478;28;20273;-47
2022/04/04 06:25:35;;;;;;;2.45;1.90;;;8.10;71.50;;;;;;5069587;28;20279;-47
2022/04/04 06:28:05;;;;;;;2.70;2.40;;;8.10;71.30;;;;;;5069374;28;20215;-48
2022/04/04 06:30:34;;;;;;;2.72;2.00;;;8.10;71.00;;;;;;5070078;28;20241;-48
2022/04/04 06:33:05;;;;;;;3.42;2.58;;;8.10;71.00;;;;;;5054563;28;20224;-47
2022/04/04 06:35:34;;;;;;;1.90;1.60;;;8.10;70.80;;;;;;5053760;28;20184;-49
2022/04/04 06:38:02;;;;;;;3.45;2.40;;;8.10;71.30;;;;;;5058307;28;20608;-50
2022/04/04 06:40:31;;;;;;;2.30;2.10;;;8.10;71.00;;;;;;5063615;28;20578;-46
2022/04/04 06:43:00;;;;;;;2.50;2.30;;;8.10;71.10;;;;;;5072940;28;20219;-49
2022/04/04 06:45:30;;;;;;;2.88;2.67;;;8.10;70.50;;;;;;5074249;28;20201;-47
2022/04/04 06:47:58;;;;;;;2.83;2.10;;;8.10;70.30;;;;;;5065332;28;20218;-48
2022/04/04 06:50:30;;;;;;;1.75;1.63;;;8.20;70.70;;;;;;5072971;28;20207;-50
2022/04/04 06:53:01;;;;;;;1.73;1.63;;;8.20;71.00;;;;;;5065975;28;20240;-46
2022/04/04 06:55:44;;;;;;;1.48;1.38;;;8.20;71.00;;;;;;5067250;28;20188;-48
2022/04/04 06:58:13;;;;;;;1.85;1.75;;;8.20;71.00;;;;;;5071825;28;20227;-52
2022/04/04 07:00:45;;;;;;;2.50;1.60;;;8.20;71.00;;;;;;5073979;28;20299;-46
2022/04/04 07:03:14;;;;;;;1.77;1.60;;;8.30;71.00;;;;;;5062293;28;20204;-48
2022/04/04 07:05:43;;;;;;;1.88;1.77;;;8.30;71.10;;;;;;5072921;28;20284;-48
2022/04/04 07:08:13;;;;;;;2.45;1.77;;;8.20;70.60;;;;;;5043558;28;20699;-48
2022/04/04 07:10:41;;;;;;;1.90;1.80;;;8.30;70.80;;;;;;5046178;28;20196;-45
2022/04/04 07:13:09;;;;;;;1.63;1.45;;;8.30;70.70;;;;;;5052671;28;20243;-47
2022/04/04 07:15:38;;;;;;;1.30;1.20;;;8.30;70.60;;;;;;5051541;28;20198;-47
2022/04/04 07:18:08;;;;;;;2.00;1.63;;;8.30;70.80;;;;;;5049261;28;20615;-46
2022/04/04 07:20:40;;;;;;;2.60;1.70;;;8.30;70.40;;;;;;5052310;28;20209;-47
2022/04/04 07:23:08;;;;;;;1.90;1.80;;;8.30;70.50;;;;;;5040803;28;20240;-45
2022/04/04 07:25:36;;;;;;;1.60;1.40;;;8.30;70.20;;;;;;5051453;28;20285;-47
2022/04/04 07:28:06;;;;;;;1.90;1.65;;;8.30;70.10;;;;;;5052123;28;20231;-49
2022/04/04 07:30:34;;;;;;;1.98;1.65;;;8.30;70.30;;;;;;5048095;28;20186;-47
2022/04/04 07:33:04;;;;;;;1.60;1.50;;;8.30;70.10;;;;;;5037151;28;20299;-49
2022/04/04 07:35:34;;;;;;;2.97;2.00;;;8.30;69.40;;;;;;5053076;28;20199;-46
2022/04/04 07:38:02;;;;;;;1.38;1.27;;;8.30;69.80;;;;;;5051280;28;20311;-47
2022/04/04 07:40:30;;;;;;;2.00;1.80;;;8.20;69.90;;;;;;5053153;28;20607;-47
2022/04/04 07:42:59;;;;;;;1.90;1.58;;;8.30;69.60;;;;;;5052378;28;20224;-47
2022/04/04 07:45:29;;;;;;;2.42;2.00;;;8.20;69.20;;;;;;5051237;28;20579;-49
2022/04/04 07:47:58;;;;;;;2.83;2.00;;;8.20;69.10;;;;;;5038939;28;20251;-46
2022/04/04 07:50:28;;;;;;;1.63;1.52;;;8.20;69.00;;;;;;5041226;28;20224;-47
2022/04/04 07:52:58;;;;;;;2.13;1.90;;;8.20;69.20;;;;;;5049846;28;20315;-47
2022/04/04 07:55:26;;;;;;;2.28;1.70;;;8.10;68.90;;;;;;5052035;28;20215;-47
2022/04/04 07:57:55;;;;;;;2.70;1.73;;;8.20;68.60;;;;;;5052321;28;20227;-46
2022/04/04 08:00:24;;;;;;;2.00;1.70;;;8.20;69.30;;;;;;5052444;28;20205;-48
2022/04/04 08:02:52;;;;;;;1.67;1.23;;;8.20;68.90;;;;;;5047274;28;20688;-48
2022/04/04 08:05:21;;;;;;;2.13;1.77;;;8.20;69.00;;;;;;5051475;28;20189;-47
2022/04/04 08:07:51;;;;;;;2.00;1.52;;;8.20;69.20;;;;;;5046043;28;20252;-48
2022/04/04 08:10:27;;;;;;;1.92;1.83;;;8.20;70.50;;;;;;5043658;28;20559;-49
2022/04/04 08:12:55;;;;;;;2.17;1.70;;;8.20;69.20;;;;;;5051236;28;20212;-48
2022/04/04 08:15:24;;;;;;;1.67;1.55;;;8.20;69.00;;;;;;5051088;28;20200;-51
2022/04/04 08:17:57;;;;;;;2.10;1.40;;;8.10;69.00;;;;;;5037839;28;20271;-49
2022/04/04 08:20:25;;;;;;;1.90;1.50;;;8.10;69.00;;;;;;5049002;28;20261;-44
2022/04/04 08:22:53;;;;;;;2.58;1.85;;;8.20;68.70;;;;;;5045171;28;20550;-46
2022/04/04 08:25:22;;;;;;;1.45;1.35;;;8.10;68.10;;;;;;5050003;28;20216;-47
2022/04/04 08:27:51;;;;;;;1.88;1.70;;;8.10;68.90;;;;;;5050268;28;20220;-48
2022/04/04 08:30:21;;;;;;;3.78;2.20;;;8.10;68.50;;;;;;5050933;28;20222;-46
2022/04/04 08:32:49;;;;;;;3.00;1.70;;;8.10;68.60;;;;;;5044288;28;20325;-48
2022/04/04 08:35:18;;;;;;;1.75;1.40;;;8.10;68.60;;;;;;5050565;28;20255;-48
2022/04/04 08:37:47;;;;;;;1.92;1.73;;;8.10;68.00;;;;;;5034819;28;20217;-46
2022/04/04 08:40:18;;;;;;;2.95;1.60;;;8.10;68.60;;;;;;5050090;28;20192;-47
2022/04/04 08:42:47;;;;;;;1.75;1.65;;;8.10;68.50;;;;;;5050807;28;20221;-48
2022/04/04 08:45:17;;;;;;;1.60;1.50;;;8.10;69.00;;;;;;5050225;28;20215;-49
2022/04/04 08:47:47;;;;;;;2.30;1.75;;;8.10;68.50;;;;;;5045369;28;20222;-47
2022/04/04 08:50:18;;;;;;;3.40;1.65;;;8.10;69.00;;;;;;5050682;28;20271;-46
2022/04/04 08:52:49;;;;;;;1.83;1.65;;;8.10;68.80;;;;;;5046002;28;20247;-47
2022/04/04 08:55:17;;;;;;;3.95;1.40;;;8.10;68.80;;;;;;5039623;28;20263;-48
2022/04/04 08:57:46;;;;;;;1.83;1.65;;;8.10;68.90;;;;;;5050647;28;20220;-48
2022/04/04 09:00:18;;;;;;;1.30;1.20;;;8.10;69.00;;;;;;5050564;28;20656;-48
2022/04/04 09:03:02;;;;;;;2.25;1.40;;;8.10;69.20;;;;;;5045512;28;20263;-48
2022/04/04 09:05:33;;;;;;;2.20;2.00;;;8.10;68.90;;;;;;5050696;28;20188;-49
2022/04/04 09:08:07;;;;;;;1.60;1.40;;;8.20;69.20;;;;;;5042470;28;20212;-46
2022/04/04 09:10:40;;;;;;;2.95;1.90;;;8.10;69.00;;;;;;5035806;28;20226;-48
2022/04/04 09:13:13;;;;;;;2.10;1.90;;;8.10;69.20;;;;;;5048166;28;20723;-50
2022/04/04 09:15:58;;;;;;;2.25;1.88;;;8.20;69.30;;;;;;5049458;28;20663;-46
2022/04/04 09:18:47;;;;;;;1.50;1.40;;;8.10;69.00;;;;;;5041712;28;20703;-48
2022/04/04 09:21:31;;;;;;;2.05;1.85;;;8.10;69.30;;;;;;5048712;28;20206;-46
2022/04/04 09:24:03;;;;;;;2.13;1.80;;;8.20;69.40;;;;;;5048183;28;20221;-48
2022/04/04 09:26:33;;;;;;;1.70;1.60;;;8.10;69.40;;;;;;5050699;28;20233;-47
2022/04/04 09:29:06;;;;;;;1.60;1.50;;;8.20;69.40;;;;;;5051459;28;20195;-48
2022/04/04 09:31:36;;;;;;;2.20;1.75;;;8.10;68.90;;;;;;5030100;28;20205;-46
2022/04/04 09:34:06;;;;;;;1.90;1.70;;;8.20;69.20;;;;;;5048699;28;20581;-47
2022/04/04 09:36:47;;;;;;;4.38;1.58;;;8.10;69.10;;;;;;5050037;28;20292;-49
2022/04/04 09:39:16;;;;;;;3.25;2.00;;;8.20;69.30;;;;;;5045698;28;20674;-47
2022/04/04 09:41:45;;;;;;;1.77;1.60;;;8.20;69.20;;;;;;5049347;28;20722;-47
2022/04/04 09:44:16;;;;;;;1.83;1.70;;;8.10;69.10;;;;;;5049926;28;20258;-46
2022/04/04 09:46:46;;;;;;;2.13;1.70;;;8.10;69.30;;;;;;5044000;28;20304;-48
2022/04/04 09:49:16;;;;;;;2.70;1.90;;;8.20;69.10;;;;;;5047197;28;20177;-47
2022/04/04 09:51:48;;;;;;;2.10;1.92;;;8.10;68.80;;;;;;5046379;28;20250;-46
2022/04/04 09:54:17;;;;;;;1.90;1.70;;;8.10;69.00;;;;;;5042985;28;20213;-49
2022/04/04 09:56:47;;;;;;;2.30;2.10;;;8.10;69.10;;;;;;5049901;28;20275;-45
2022/04/04 09:59:18;;;;;;;2.85;1.90;;;8.10;69.20;;;;;;5049681;28;20176;-47
2022/04/04 10:01:48;;;;;;;1.95;1.63;;;8.10;69.10;;;;;;5048550;28;20215;-48
2022/04/04 10:04:17;;;;;;;1.98;1.50;;;8.10;69.40;;;;;;5049561;28;20243;-47
2022/04/04 10:06:48;;;;;;;2.83;1.67;;;8.10;69.60;;;;;;5049673;28;20219;-48
2022/04/04 10:09:18;;;;;;;2.38;1.83;;;8.10;69.30;;;;;;5034856;28;20197;-49
2022/04/04 10:11:47;;;;;;;6.20;2.38;;;8.10;69.10;;;;;;5050339;28;20330;-48
2022/04/04 10:14:17;;;;;;;2.30;2.05;;;8.10;68.90;;;;;;5049351;28;20213;-48
2022/04/04 10:16:48;;;;;;;2.35;1.90;;;8.10;68.80;;;;;;5040514;28;20225;-48
2022/04/04 10:19:18;;;;;;;2.85;2.25;;;8.10;68.90;;;;;;5052021;28;20246;-46
2022/04/04 10:21:46;;;;;;;3.55;2.25;;;8.10;69.00;;;;;;5053615;28;20753;-48
2022/04/04 10:24:15;;;;;;;2.40;2.20;;;8.10;69.00;;;;;;5038274;28;20216;-47
2022/04/04 10:26:47;;;;;;;4.38;2.92;;;8.10;68.70;;;;;;5047476;28;20231;-46
2022/04/04 10:29:17;;;;;;;2.25;1.92;;;8.10;69.00;;;;;;5053575;28;20208;-51
2022/04/04 10:31:49;;;;;;;2.38;1.60;;;8.10;69.30;;;;;;5044014;28;20219;-50
2022/04/04 10:34:20;;;;;;;1.98;1.77;;;8.10;69.30;;;;;;5051863;28;20212;-47
2022/04/04 10:37:00;;;;;;;2.90;2.10;;;8.10;69.30;;;;;;5053432;28;20212;-47
2022/04/04 10:39:41;;;;;;;2.35;2.15;;;8.10;69.30;;;;;;5047125;28;20215;-47
2022/04/04 10:42:31;;;;;;;3.25;1.90;;;8.10;69.10;;;;;;5052833;28;20302;-47
2022/04/04 10:45:06;;;;;;;3.55;2.35;;;8.10;69.20;;;;;;5040982;28;20257;-46
2022/04/04 10:47:39;;;;;;;2.67;2.20;;;8.10;68.90;;;;;;5033237;28;20701;-47
2022/04/04 10:50:24;;;;;;;2.35;1.95;;;8.10;68.90;;;;;;5042229;28;20192;-50
2022/04/04 10:52:54;;;;;;;3.00;2.25;;;8.10;69.10;;;;;;5048037;28;20220;-47
2022/04/04 10:55:30;;;;;;;2.88;1.90;;;8.10;68.90;;;;;;5036260;28;20658;-46
2022/04/04 10:57:59;;;;;;;2.47;1.90;;;8.10;68.90;;;;;;5056413;28;20265;-47
2022/04/04 11:00:35;;;;;;;2.75;2.28;;;8.10;69.10;;;;;;5067124;28;20185;-48
2022/04/04 11:03:11;;;;;;;1.90;1.80;;;8.10;69.00;;;;;;5061287;28;20216;-49
2022/04/04 11:09:11;;;;;;;4.57;2.90;;;8.10;68.90;;;;;;5041284;28;20269;-50
2022/04/04 11:11:52;;;;;;;2.30;2.10;;;8.10;68.90;;;;;;5037687;28;20204;-48
2022/04/04 11:14:43;;;;;;;2.42;2.03;;;8.10;68.80;;;;;;5050274;28;20208;-48
2022/04/04 11:17:30;;;;;;;2.63;2.25;;;8.10;68.90;;;;;;5047588;28;20215;-48
2022/04/04 11:20:04;;;;;;;2.58;1.85;;;8.10;69.00;;;;;;5053819;28;20611;-47
2022/04/04 11:22:37;;;;;;;1.77;1.67;;;8.10;68.90;;;;;;5050012;28;20216;-47
2022/04/04 11:25:07;;;;;;;2.65;1.92;;;8.10;68.90;;;;;;5044398;28;20205;-47
2022/04/04 11:27:39;;;;;;;2.70;2.10;;;8.10;69.00;;;;;;5052138;28;20224;-48
2022/04/04 11:30:09;;;;;;;3.55;2.15;;;8.10;69.00;;;;;;5052851;28;20195;-48
2022/04/04 11:32:40;;;;;;;2.20;2.00;;;8.10;69.10;;;;;;5051434;28;20423;-47
2022/04/04 11:35:15;;;;;;;2.00;1.80;;;8.10;69.20;;;;;;5051792;28;20232;-46
2022/04/04 11:37:46;;;;;;;2.88;2.65;;;8.10;69.40;;;;;;5049290;28;20501;-46
2022/04/04 11:40:17;;;;;;;3.65;2.45;;;8.10;69.20;;;;;;5052571;28;20220;-50
2022/04/04 11:42:50;;;;;;;2.13;1.92;;;8.10;69.30;;;;;;5051247;28;20303;-47
2022/04/04 11:45:20;;;;;;;4.60;2.25;;;8.10;69.50;;;;;;5049182;28;20625;-47
2022/04/04 11:47:54;;;;;;;3.25;1.80;;;8.10;69.50;;;;;;5046284;28;20213;-48
2022/04/04 11:50:26;;;;;;;3.08;1.90;;;8.10;69.70;;;;;;5053143;28;20439;-46
2022/04/04 11:52:57;;;;;;;2.25;2.05;;;8.10;69.60;;;;;;5050765;28;20315;-46
2022/04/04 11:55:27;;;;;;;2.28;2.08;;;8.10;69.70;;;;;;5049895;28;20195;-46
2022/04/04 11:57:58;;;;;;;2.22;2.03;;;8.10;69.60;;;;;;5041125;28;20221;-46
2022/04/04 12:00:28;;;;;;;2.03;1.75;;;8.10;69.80;;;;;;5051839;28;20460;-47
2022/04/04 12:02:56;;;;;;;2.33;2.05;;;8.10;69.90;;;;;;5050468;28;20227;-49
2022/04/04 12:05:27;;;;;;;2.40;2.17;;;8.10;69.90;;;;;;5052646;28;20364;-48
2022/04/04 12:07:56;;;;;;;2.20;2.00;;;8.10;70.00;;;;;;5046602;28;20217;-47
2022/04/04 12:10:32;;;;;;;3.67;2.22;;;8.10;70.20;;;;;;5032948;28;20212;-46
2022/04/04 12:13:02;;;;;;;2.92;2.15;;;8.10;70.30;;;;;;5031726;28;20704;-47
2022/04/04 12:15:32;;;;;;;2.42;2.22;;;8.10;70.50;;;;;;5050050;28;20216;-46
2022/04/04 12:18:01;;;;;;;3.53;2.25;;;8.10;70.60;;;;;;5031572;28;20213;-46
2022/04/04 12:20:40;;;;;;;2.58;2.30;;;8.10;70.90;;;;;;5042008;28;20192;-49
2022/04/04 12:26:00;;;;;;;4.50;2.85;;;8.10;71.20;;;;;;5032240;28;20189;-47
2022/04/04 12:28:30;;;;;;;9.50;3.28;;;8.10;71.50;;;;;;5031729;28;20639;-47
2022/04/04 12:30:58;;;;;;;2.70;1.90;;;8.10;71.50;;;;;;5039785;28;20211;-48
2022/04/04 12:33:32;;;;;;;3.50;2.83;;;8.10;71.60;;;;;;5043995;28;20595;-47
2022/04/04 12:36:02;;;;;;;3.45;2.10;;;8.10;72.20;;;;;;5051632;28;20713;-46
2022/04/04 12:38:32;;;;;;;3.28;2.75;;;8.10;72.50;;;;;;5043293;28;20312;-48
2022/04/04 12:41:13;;;;;;;2.45;2.25;;;8.10;72.40;;;;;;5051720;28;20192;-47
2022/04/04 12:43:42;;;;;;;3.28;2.78;;;8.10;72.60;;;;;;5039808;28;20223;-47
2022/04/04 12:46:27;;;;;;;2.70;2.50;;;8.10;72.80;;;;;;5046447;28;20192;-50
2022/04/04 12:49:12;;;;;;;3.30;3.00;;;8.10;72.70;;;;;;5051379;28;20197;-47
2022/04/04 12:51:51;;;;;;;2.40;2.20;;;8.10;74.40;;;;;;5050638;28;20731;-48
2022/04/04 12:54:27;;;;;;;2.90;2.40;;;8.10;73.20;;;;;;5043929;28;20227;-45
2022/04/04 12:56:56;;;;;;;3.15;2.65;;;8.10;73.10;;;;;;5038349;28;20217;-47
2022/04/04 12:59:25;;;;;;;2.63;2.42;;;8.10;73.30;;;;;;5050422;28;20181;-48
2022/04/04 13:02:05;;;;;;;3.00;2.75;;;8.10;73.60;;;;;;5049612;28;20220;-47
2022/04/04 13:04:35;;;;;;;3.35;2.33;;;8.10;73.70;;;;;;5070225;28;20292;-50
2022/04/04 13:07:19;;;;;;;2.70;2.50;;;8.10;73.80;;;;;;5070090;28;20698;-47
2022/04/04 13:09:52;;;;;;;3.15;2.85;;;8.10;73.70;;;;;;5065091;28;20674;-47
2022/04/04 13:12:27;;;;;;;2.40;2.20;;;8.10;74.20;;;;;;5070282;28;20737;-48
2022/04/04 13:14:55;;;;;;;3.55;2.50;;;8.10;74.00;;;;;;5070892;28;20618;-46
2022/04/04 13:17:34;;;;;;;2.97;2.58;;;8.10;74.10;;;;;;5068956;28;20219;-48
2022/04/04 13:20:02;;;;;;;2.83;2.60;;;8.10;74.00;;;;;;5070519;28;20214;-45